createdAt,value
2022-11-07T07:20:42.871Z,100899.72
2022-11-07T07:23:20.379Z,100885.78
2022-11-07T07:25:58.508Z,100890.09
2022-11-07T07:28:37.495Z,100883.03
2022-11-07T07:31:26.053Z,100887.22
2022-11-07T07:34:02.929Z,100880.94
2022-11-07T07:36:42.548Z,100884.41
2022-11-07T07:39:19.238Z,100888.66
2022-11-07T07:41:56.316Z,100885.84
2022-11-07T07:44:34.176Z,100870.78
2022-11-07T07:47:11.707Z,100870.63
2022-11-07T07:49:48.665Z,100868.75
2022-11-07T07:52:28.422Z,100868.41
2022-11-07T07:55:05.362Z,100858.59
2022-11-07T07:57:44.787Z,100847.09
2022-11-07T08:00:22.693Z,100855.78
2022-11-07T08:03:07.391Z,100847.78
2022-11-07T08:05:44.427Z,100853.72
2022-11-07T08:08:24.877Z,100844.78
2022-11-07T08:11:06.845Z,100847.94
2022-11-07T08:13:44.037Z,100836.53
2022-11-07T08:16:21.119Z,100833.63
2022-11-07T08:18:58.283Z,100838.22
2022-11-07T08:21:35.011Z,100835.31
2022-11-07T08:24:16.684Z,100832.47
2022-11-07T08:26:53.444Z,100835.97
2022-11-07T08:29:30.574Z,100829.66
2022-11-07T08:32:07.572Z,100834.78
2022-11-07T08:34:44.702Z,100841.72
2022-11-07T08:37:21.413Z,100846.84
2022-11-07T08:40:01.561Z,100846.09
2022-11-07T08:42:38.249Z,100853.16
2022-11-07T08:48:06.022Z,100848.34
2022-11-07T08:50:43.314Z,100841.38
2022-11-07T08:53:20.188Z,100850.06
2022-11-07T08:56:05.867Z,100851.22
2022-11-07T08:58:42.630Z,100856.69
2022-11-07T09:01:19.834Z,100853.59
2022-11-07T09:03:58.273Z,100847.09
2022-11-07T09:06:36.236Z,100840.56
2022-11-07T09:09:16.640Z,100864.28
2022-11-07T09:11:56.720Z,100866.53
2022-11-07T09:14:33.472Z,100859.28
2022-11-07T09:17:10.530Z,100859.56
2022-11-07T09:19:47.275Z,100855.78
2022-11-07T09:22:24.701Z,100852.56
2022-11-07T09:25:01.463Z,100847.84
2022-11-07T09:27:41.371Z,100853.63
2022-11-07T09:30:18.588Z,100847.31
2022-11-07T09:32:59.630Z,100832.78
2022-11-07T09:35:36.359Z,100827.94
2022-11-07T09:38:14.886Z,100830.47
2022-11-07T09:41:00.612Z,100843.31
2022-11-07T09:44:13.330Z,100826.75
2022-11-07T09:47:02.933Z,100825.63
2022-11-07T09:49:44.504Z,100825.88
2022-11-07T09:52:29.251Z,100832.56
2022-11-07T09:55:16.389Z,100824.38
2022-11-07T09:57:55.806Z,100819.09
2022-11-07T10:00:37.256Z,100815.72
2022-11-07T10:03:14.678Z,100826.16
2022-11-07T10:06:02.605Z,100822.72
2022-11-07T10:08:44.847Z,100820.53
2022-11-07T10:11:36.951Z,100815.44
2022-11-07T10:14:26.856Z,100816.94
2022-11-07T10:17:17.811Z,100813.34
2022-11-07T10:20:19.267Z,100791.53
2022-11-07T10:23:15.995Z,100798.28
2022-11-07T10:25:56.250Z,100789.75
2022-11-07T10:28:35.422Z,100812.00
2022-11-07T10:31:16.312Z,100821.72
2022-11-07T10:34:00.029Z,100813.56
2022-11-07T10:36:37.370Z,100818.88
2022-11-07T10:39:20.306Z,100805.16
2022-11-07T10:42:05.540Z,100797.81
2022-11-07T10:44:45.490Z,100804.22
2022-11-07T10:47:25.579Z,100803.50
2022-11-07T10:50:19.823Z,100807.97
2022-11-07T10:52:58.505Z,100802.91
2022-11-07T10:55:46.741Z,100793.38
2022-11-07T10:58:26.520Z,100816.53
2022-11-07T11:01:08.625Z,100799.13
2022-11-07T11:03:49.912Z,100792.16
2022-11-07T11:06:34.132Z,100799.84
2022-11-07T11:12:34.269Z,100804.19
2022-11-07T11:15:16.921Z,100816.28
2022-11-07T11:18:05.590Z,100813.00
2022-11-07T11:20:47.011Z,100809.84
2022-11-07T11:23:29.235Z,100819.88
2022-11-07T11:26:11.111Z,100823.53
2022-11-07T11:28:53.133Z,100815.47
2022-11-07T11:31:38.133Z,100815.94
2022-11-07T11:34:22.530Z,100811.59
2022-11-07T11:37:08.422Z,100807.25
2022-11-07T11:39:54.274Z,100802.31
2022-11-07T11:42:40.381Z,100813.28
2022-11-07T11:45:22.785Z,100792.28
2022-11-07T11:48:08.900Z,100815.94
2022-11-07T11:50:52.697Z,100810.88
2022-11-07T11:53:30.819Z,100808.53
2022-11-07T11:56:29.572Z,100810.47
2022-11-07T11:59:35.950Z,100806.84
2022-11-07T12:02:50.859Z,100805.56
2022-11-07T12:05:48.732Z,100803.63
2022-11-07T12:08:42.993Z,100802.47
2022-11-07T12:11:30.721Z,100800.59
2022-11-07T12:14:33.141Z,100804.97
2022-11-07T12:17:18.419Z,100795.34
2022-11-07T12:20:06.085Z,100792.19
2022-11-07T12:22:58.848Z,100806.81
2022-11-07T12:25:43.743Z,100797.72
2022-11-07T12:28:45.972Z,100802.56
2022-11-07T12:31:46.581Z,100807.19
2022-11-07T12:34:37.954Z,100806.19
2022-11-07T12:37:45.722Z,100807.91
2022-11-07T12:40:38.301Z,100802.56
2022-11-07T12:43:33.500Z,100809.09
2022-11-07T12:46:29.140Z,100812.47
2022-11-07T12:49:54.295Z,100808.47
2022-11-07T12:52:52.967Z,100814.66
2022-11-07T12:55:40.282Z,100836.16
2022-11-07T12:58:21.547Z,100833.38
2022-11-07T13:00:59.370Z,100815.34
2022-11-07T13:04:03.023Z,100820.66
2022-11-07T13:06:47.317Z,100815.34
2022-11-07T13:09:34.681Z,100815.13
2022-11-07T13:12:24.382Z,100808.94
2022-11-07T13:15:02.159Z,100818.88
2022-11-07T13:17:44.941Z,100818.50
2022-11-07T13:20:35.954Z,100816.44
2022-11-07T13:23:19.965Z,100818.25
2022-11-07T13:26:14.872Z,100823.69
2022-11-07T13:29:04.901Z,100823.69
2022-11-07T13:31:45.933Z,100820.53
2022-11-07T13:34:29.858Z,100823.31
2022-11-07T13:37:10.503Z,100824.63
2022-11-07T13:39:50.182Z,100822.09
2022-11-07T13:42:33.251Z,100825.69
2022-11-07T13:45:28.219Z,100834.66
2022-11-07T13:48:13.601Z,100818.94
2022-11-07T13:51:01.212Z,100829.34
2022-11-07T13:53:55.381Z,100832.81
2022-11-07T13:56:37.181Z,100827.84
2022-11-07T13:59:29.501Z,100821.81
2022-11-07T14:02:07.932Z,100831.25
2022-11-07T14:05:15.344Z,100829.78
2022-11-07T14:07:54.860Z,100829.78
2022-11-07T14:10:41.782Z,100827.00
2022-11-07T14:13:26.801Z,100831.94
2022-11-07T14:16:07.543Z,100833.66
2022-11-07T14:18:50.339Z,100845.44
2022-11-07T14:21:32.072Z,100828.06
2022-11-07T14:24:28.664Z,100826.38
2022-11-07T14:27:11.072Z,100819.59
2022-11-07T14:29:55.789Z,100828.53
2022-11-07T14:32:33.131Z,100819.22
2022-11-07T14:35:12.970Z,100820.78
2022-11-07T14:37:50.711Z,100825.72
2022-11-07T14:40:30.115Z,100824.16
2022-11-07T14:43:10.431Z,100824.88
2022-11-07T14:48:47.860Z,100820.25
2022-11-07T14:51:29.073Z,100825.78
2022-11-07T14:54:12.597Z,100828.31
2022-11-07T14:56:55.899Z,100833.25
2022-11-07T14:59:36.454Z,100828.06
2022-11-07T15:02:30.908Z,100839.63
2022-11-07T15:05:11.267Z,100839.84
2022-11-07T15:07:52.841Z,100846.22
2022-11-07T15:10:35.981Z,100848.38
2022-11-07T15:13:27.931Z,100842.47
2022-11-07T15:16:11.229Z,100841.81
2022-11-07T15:18:51.981Z,100848.44
2022-11-07T15:21:34.963Z,100850.97
2022-11-07T15:24:36.044Z,100856.22
2022-11-07T15:27:25.932Z,100845.63
2022-11-07T15:30:05.368Z,100847.84
2022-11-07T15:32:46.404Z,100859.31
2022-11-07T15:38:24.102Z,100849.19
2022-11-07T15:41:01.001Z,100853.13
2022-11-07T15:43:38.261Z,100852.31
2022-11-07T15:46:28.140Z,100857.31
2022-11-07T15:49:08.791Z,100868.78
2022-11-07T15:51:45.552Z,100869.91
2022-11-07T15:54:22.773Z,100872.91
2022-11-07T15:57:05.700Z,100873.75
2022-11-07T15:59:44.002Z,100873.97
2022-11-07T16:02:22.030Z,100879.06
2022-11-07T16:05:02.223Z,100880.97
2022-11-07T16:07:39.502Z,100885.63
2022-11-07T16:10:25.494Z,100881.19
2022-11-07T16:13:05.166Z,100893.69
2022-11-07T16:15:45.663Z,100895.41
2022-11-07T16:18:24.481Z,100889.88
2022-11-07T16:21:04.391Z,100886.28
2022-11-07T16:23:42.673Z,100877.38
2022-11-07T16:26:26.960Z,100893.28
2022-11-07T16:29:04.343Z,100893.91
2022-11-07T16:31:41.635Z,100885.81
2022-11-07T16:34:18.732Z,100892.63
2022-11-07T16:36:58.792Z,100900.25
2022-11-07T16:39:35.693Z,100885.19
2022-11-07T16:42:17.043Z,100893.91
2022-11-07T16:44:54.132Z,100890.28
2022-11-07T16:47:34.911Z,100893.69
2022-11-07T16:50:16.496Z,100889.84
2022-11-07T16:52:56.842Z,100889.00
2022-11-07T16:55:36.473Z,100886.00
2022-11-07T16:58:28.284Z,100891.31
2022-11-07T17:01:08.983Z,100907.47
2022-11-07T17:03:46.572Z,100896.34
2022-11-07T17:06:30.526Z,100898.75
2022-11-07T17:09:13.668Z,100907.47
2022-11-07T17:11:51.082Z,100904.28
2022-11-07T17:14:28.895Z,100909.59
2022-11-07T17:17:06.082Z,100895.38
2022-11-07T17:19:43.929Z,100909.69
2022-11-07T17:22:22.714Z,100916.59
2022-11-07T17:25:03.243Z,100918.09
2022-11-07T17:27:41.479Z,100918.28
2022-11-07T17:30:21.810Z,100923.41
2022-11-07T17:33:00.499Z,100925.63
2022-11-07T17:35:41.480Z,100911.31
2022-11-07T17:38:20.948Z,100917.47
2022-11-07T17:41:17.756Z,100915.22
2022-11-07T17:43:55.190Z,100910.03
2022-11-07T17:46:35.252Z,100914.53
2022-11-07T17:49:17.648Z,100909.88
2022-11-07T17:51:57.441Z,100908.91
2022-11-07T17:54:35.190Z,100905.31
2022-11-07T17:57:17.241Z,100906.69
2022-11-07T17:59:54.743Z,100915.78
2022-11-07T18:02:33.851Z,100922.47
2022-11-07T18:05:17.267Z,100911.44
2022-11-07T18:07:58.193Z,100908.78
2022-11-07T18:10:38.281Z,100920.34
2022-11-07T18:13:20.618Z,100903.94
2022-11-07T18:15:59.045Z,100902.06
2022-11-07T18:18:39.522Z,100902.06
2022-11-07T18:21:18.801Z,100904.19
2022-11-07T18:23:57.671Z,100905.88
2022-11-07T18:26:40.166Z,100901.63
2022-11-07T18:29:27.038Z,100910.56
2022-11-07T18:32:04.541Z,100909.00
2022-11-07T18:34:44.322Z,100915.03
2022-11-07T18:37:22.142Z,100908.88
2022-11-07T18:40:07.451Z,100912.50
2022-11-07T18:42:51.385Z,100900.16
2022-11-07T18:45:32.914Z,100911.84
2022-11-07T18:48:10.431Z,100901.97
2022-11-07T18:50:48.060Z,100895.94
2022-11-07T18:53:25.947Z,100900.50
2022-11-07T18:56:11.854Z,100911.13
2022-11-07T18:58:50.147Z,100913.78
2022-11-07T19:01:34.390Z,100902.09
2022-11-07T19:04:12.456Z,100904.13
2022-11-07T19:06:58.991Z,100908.47
2022-11-07T19:09:37.706Z,100914.63
2022-11-07T19:12:16.158Z,100917.28
2022-11-07T19:14:53.878Z,100912.06
2022-11-07T19:17:34.726Z,100911.13
2022-11-07T19:20:14.706Z,100923.53
2022-11-07T19:22:53.527Z,100906.16
2022-11-07T19:25:31.508Z,100906.03
2022-11-07T19:28:10.154Z,100908.91
2022-11-07T19:30:48.217Z,100905.50
2022-11-07T19:33:28.907Z,100909.34
2022-11-07T19:36:09.916Z,100910.31
2022-11-07T19:38:48.149Z,100902.59
2022-11-07T19:41:26.278Z,100903.53
2022-11-07T19:44:07.601Z,100904.25
2022-11-07T19:46:50.306Z,100900.88
2022-11-07T19:49:41.436Z,100895.56
2022-11-07T19:52:24.509Z,100900.22
2022-11-07T19:55:07.122Z,100908.31
2022-11-07T19:57:47.536Z,100909.38
2022-11-07T20:00:27.071Z,100911.94
2022-11-07T20:03:04.853Z,100911.94
2022-11-07T20:05:50.997Z,100912.69
2022-11-07T20:08:28.779Z,100914.34
2022-11-07T20:11:07.109Z,100915.84
2022-11-07T20:13:46.500Z,100912.56
2022-11-07T20:16:27.036Z,100908.84
2022-11-07T20:19:08.188Z,100912.22
2022-11-07T20:21:54.537Z,100913.72
2022-11-07T20:24:32.283Z,100908.28
2022-11-07T20:27:10.777Z,100909.03
2022-11-07T20:29:48.347Z,100915.91
2022-11-07T20:32:37.728Z,100908.47
2022-11-07T20:35:14.978Z,100909.22
2022-11-07T20:37:55.664Z,100909.94
